Home > Products > Valid Products > TAF

000
FTUS44 KCRP 221700
TAFALI
TAF
KALI 221740Z 2218/2318 22008KT P6SM SCT010
      TEMPO 2218/2220 BKN010
     FM230200 18005KT P6SM SCT015
     FM230600 17006KT 3SM BR OVC003
     FM230800 19004KT 2SM BR OVC001
      TEMPO 2308/2312 1SM BR OVC001
     FM231500 25010KT P6SM BKN008
     FM231630 31017KT P6SM FEW015 BKN150=



000
FTUS44 KCRP 221700
TAFCRP
TAF
KCRP 221740Z 2218/2318 21010KT P6SM BKN011 OVC020
     FM222000 19010KT P6SM SCT025
     FM230400 17006KT 4SM BR OVC005
     FM230700 20005KT 2SM BR OVC003
      TEMPO 2308/2312 1SM BR OVC001
     FM231600 26011KT P6SM BKN009=



000
FTUS44 KCRP 221700
TAFLRD
TAF
KLRD 221740Z 2218/2318 25006KT P6SM SKC
     FM230200 16005KT P6SM SCT150
     FM230900 VRB03KT P6SM SCT012 BKN150
     FM231400 33011KT P6SM FEW030
     FM231600 33020G27KT P6SM FEW050=



000
FTUS44 KCRP 221700
TAFVCT
TAF
KVCT 221740Z 2218/2318 21012KT P6SM FEW015 BKN150
      TEMPO 2218/2220 BKN015 OVC150
     FM230100 18005KT P6SM SCT015 BKN150
     FM230500 15004KT 2SM BR OVC006
     FM230800 11004KT 1SM BR OVC002
     FM231300 33005KT 2SM BR OVC008
     FM231600 33014G18KT P6SM VCSH BKN015 OVC130=



000
FTUS44 KCRP 221600 AAB
TAFVCT
TAF AMD
KVCT 221635Z 2217/2312 23011KT P6SM BKN025
     FM221900 21011KT P6SM FEW030
     FM230200 18005KT P6SM SCT015
     FM230600 11004KT 2SM BR OVC004=



000
FTUS44 KCRP 221500 AAA
TAFLRD
TAF AMD
KLRD 221558Z 2216/2312 20008KT P6SM OVC006
     FM221730 25007KT P6SM SCT008
     FM221830 24007KT P6SM FEW250
     FM230900 19003KT 4SM BR OVC012=



000
FTUS44 KCRP 221500 AAA
TAFLRD
TAF AMD
KLRD 221558Z 2216/2312 20008KT P6SM OVC006
     FM221730 25007KT P6SM SCT008
     FM221830 24007KT P6SM FEW250
     FM230900 19003KT 4SM BR OVC012=



000
FTUS44 KCRP 221500 AAA
TAFVCT
TAF AMD
KVCT 221530Z 2216/2312 23007KT P6SM BKN025
     FM221630 22012KT P6SM FEW030
     FM230200 18005KT P6SM SCT015
     FM230600 11004KT 2SM BR OVC004=



000
FTUS44 KCRP 221500 AAA
TAFCRP
TAF AMD
KCRP 221529Z 2215/2312 22011KT 3SM BR OVC003
     FM221630 22013KT 4SM BR OVC012
     FM221730 22013KT P6SM SCT015
     FM230100 17006KT P6SM SCT015
     FM230400 16006KT 2SM BR OVC004=



000
FTUS44 KCRP 221500 AAB
TAFALI
TAF AMD
KALI 221528Z 2215/2312 23009KT 5SM BR OVC004
     FM221630 21010KT P6SM BKN012
     FM221730 23010KT P6SM FEW020
     FM230100 18005KT P6SM SCT020
     FM230600 17006KT 3SM BR OVC005=



000
FTUS44 KCRP 221300 AAA
TAFALI
TAF AMD
KALI 221357Z 2214/2312 20008KT 3SM BR OVC005
     FM221530 21010KT P6SM BKN012
     FM221730 23010KT P6SM FEW020
     FM230100 18005KT P6SM SCT020
     FM230600 17006KT 3SM BR OVC005=



000
FTUS44 KCRP 221100
TAFCRP
TAF
KCRP 221129Z 2212/2312 20005KT 2SM BR OVC003
      TEMPO 2212/2214 1/2SM FG
     FM221400 20008KT 4SM BR OVC012
     FM221500 22010KT P6SM SCT015
     FM221800 21012KT P6SM SCT250
     FM230100 17006KT P6SM SCT015
     FM230400 16006KT 2SM BR OVC004=



000
FTUS44 KCRP 221100
TAFALI
TAF
KALI 221129Z 2212/2312 20005KT P6SM OVC006
      TEMPO 2212/2214 3SM BR OVC003
     FM221400 20006KT P6SM OVC012
     FM221700 21008KT P6SM SCT015
     FM221800 23010KT P6SM SKC
     FM230100 18005KT P6SM SCT020
     FM230600 17006KT 3SM BR OVC005=



000
FTUS44 KCRP 221100
TAFVCT
TAF
KVCT 221129Z 2212/2312 VRB03KT 2SM BR OVC004
      TEMPO 2212/2214 1/2SM FG OVC002
     FM221500 23004KT 4SM BR OVC012
     FM221700 22010KT P6SM SCT018
     FM221900 20012KT P6SM SCT250
     FM230200 18005KT P6SM SCT015
     FM230600 11004KT 2SM BR OVC004=



000
FTUS44 KCRP 221100
TAFLRD
TAF
KLRD 221129Z 2212/2312 19005KT P6SM OVC008
     FM221500 20006KT P6SM SCT008
     FM221600 23008KT P6SM SKC
     FM222300 13005KT P6SM SCT250
     FM230900 19003KT 4SM BR OVC012
      AMD NOT SKED=



000
FTUS44 KCRP 220900 AAA
TAFVCT
TAF AMD
KVCT 220903Z 2209/2306 VRB03KT 1/4SM FG OVC001
     FM221530 23004KT 4SM BR BKN008 OVC015
     FM221700 22008KT P6SM SCT018
     FM221900 19011KT P6SM SKC
     FM230200 18005KT P6SM BKN250=



000
FTUS44 KCRP 220800 AAB
TAFCRP
TAF AMD
KCRP 220833Z 2209/2306 VRB03KT 1/4SM FG OVC001
     FM221500 20008KT 2SM BR BKN008
     FM221600 20011KT P6SM SCT015
     FM221800 21013KT P6SM SKC
     FM230100 18007KT P6SM BKN250=



000
FTUS44 KCRP 220700 AAA
TAFCRP
TAF AMD
KCRP 220716Z 2207/2306 VRB03KT 1SM BR OVC003
     FM221500 20008KT 2SM BR BKN008
     FM221600 20011KT P6SM SCT015
     FM221800 21013KT P6SM SKC
     FM230100 18007KT P6SM BKN250=



000
FTUS44 KCRP 220700 AAA
TAFCRP
TAF AMD
KCRP 220716Z 2207/2306 VRB03KT 1SM BR OVC003
     FM221500 20008KT 2SM BR BKN008
     FM221600 20011KT P6SM SCT015
     FM221800 21013KT P6SM SKC
     FM230100 18007KT P6SM BKN250=



000
FTUS44 KCRP 220700 AAA
TAFALI
TAF AMD
KALI 220715Z 2207/2306 19004KT 3SM BR OVC004
     FM221000 VRB03KT 1SM BR OVC002
      TEMPO 2210/2214 1/2SM FG VV001
     FM221500 20006KT 2SM BR BKN008
     FM221600 21009KT P6SM SCT015
     FM221800 23011KT P6SM SKC
     FM230100 18005KT P6SM BKN250=



000
FTUS44 KCRP 220500
TAFCRP
TAF
KCRP 220531Z 2206/2306 16004KT P6SM SCT007 OVC015
     FM220800 17004KT 4SM BR OVC007
     FM221000 VRB03KT 1SM BR OVC003
     FM221500 20008KT 2SM BR BKN008
     FM221600 20011KT P6SM SCT015
     FM221800 21013KT P6SM SKC
     FM230100 18007KT P6SM BKN250=



000
FTUS44 KCRP 220500
TAFVCT
TAF
KVCT 220531Z 2206/2306 18004KT 6SM BR OVC006
     FM220800 VRB03KT 2SM BR OVC004
     FM221000 VRB03KT 1/2SM FG OVC002
     FM221530 23004KT 4SM BR BKN008 OVC015
     FM221700 22008KT P6SM SCT018
     FM221900 19011KT P6SM SKC
     FM230200 18005KT P6SM BKN250=



000
FTUS44 KCRP 220500
TAFALI
TAF
KALI 220531Z 2206/2306 17005KT P6SM OVC006
     FM220800 19004KT 4SM BR OVC004
     FM221000 VRB03KT 1SM BR OVC002
      TEMPO 2210/2214 1/2SM FG VV001
     FM221500 20006KT 2SM BR BKN008
     FM221600 21009KT P6SM SCT015
     FM221800 23011KT P6SM SKC
     FM230100 18005KT P6SM BKN250=



000
FTUS44 KCRP 220500
TAFLRD
TAF
KLRD 220531Z 2206/2306 15004KT P6SM OVC008
     FM220900 VRB03KT 4SM BR OVC004
      TEMPO 2210/2214 2SM BR OVC002
     FM221500 20006KT 5SM BR SCT008
     FM221600 21009KT P6SM SKC
     FM222300 18006KT P6SM BKN250
      AMD NOT SKED=



000
FTUS44 KCRP 220400 AAA
TAFALI
TAF AMD
KALI 220411Z 2204/2224 VRB03KT P6SM OVC007
     FM220700 19004KT 3SM BR OVC004
     FM221000 VRB03KT 1SM BR OVC002
      TEMPO 2210/2214 1/2SM FG VV001
     FM221500 20006KT 2SM BR SCT008
     FM221600 21009KT P6SM SCT015
     FM221800 23011KT P6SM SKC=



000
FTUS44 KCRP 220400 AAB
TAFVCT
TAF AMD
KVCT 220410Z 2204/2224 19004KT 6SM BR OVC007
     FM220800 VRB03KT 2SM BR OVC004
      TEMPO 2210/2214 1/2SM FG OVC002
     FM221530 23004KT 4SM BR BKN008 OVC015
     FM221700 22008KT P6SM SCT020
     FM221900 19011KT P6SM SKC=



000
FTUS44 KCRP 220400 AAB
TAFCRP
TAF AMD
KCRP 220409Z 2204/2224 13005KT P6SM SCT018 OVC028
      TEMPO 2204/2206 BKN018
     FM220600 15004KT P6SM OVC015
     FM220800 17004KT 4SM BR OVC008
     FM221000 VRB03KT 1/2SM FG OVC002
     FM221500 20008KT 2SM BR BKN008
     FM221600 20011KT P6SM SCT015
     FM221800 21013KT P6SM SKC=



000
FTUS44 KCRP 220400 AAA
TAFLRD
TAF AMD
KLRD 220408Z 2204/2224 15004KT P6SM OVC008
     FM220900 VRB03KT 1SM BR OVC003
     FM221500 20007KT P6SM SCT008
     FM221600 21009KT P6SM SKC=



000
FTUS44 KCRP 220100 AAA
TAFVCT
TAF AMD
KVCT 220155Z 2202/2224 16006KT P6SM SCT024 BKN035
     FM220500 17006KT P6SM OVC018
     FM220700 19004KT 3SM BR OVC008
     FM220900 VRB03KT 1SM BR OVC003
      TEMPO 2210/2214 1/2SM FG OVC002
     FM221530 23004KT 4SM BR BKN008 OVC015
     FM221700 22008KT P6SM SCT020
     FM221900 19011KT P6SM SKC=



000
FTUS44 KCRP 220100 AAA
TAFVCT
TAF AMD
KVCT 220155Z 2202/2224 16006KT P6SM SCT024 BKN035
     FM220500 17006KT P6SM OVC018
     FM220700 19004KT 3SM BR OVC008
     FM220900 VRB03KT 1SM BR OVC003
      TEMPO 2210/2214 1/2SM FG OVC002
     FM221530 23004KT 4SM BR BKN008 OVC015
     FM221700 22008KT P6SM SCT020
     FM221900 19011KT P6SM SKC=



000
FTUS44 KCRP 220100 AAA
TAFCRP
TAF AMD
KCRP 220153Z 2202/2224 13005KT P6SM SCT015 OVC035
      TEMPO 2202/2204 BKN015
     FM220400 15004KT P6SM OVC012
     FM220700 17004KT 4SM BR OVC006
     FM220900 VRB03KT 1/2SM FG OVC001
     FM221500 20008KT 2SM BR BKN008
     FM221600 20011KT P6SM SCT015
     FM221800 21013KT P6SM SKC=



000
FTUS44 KCRP 220100 AAA
TAFCRP
TAF AMD
KCRP 220153Z 2202/2224 13005KT P6SM SCT015 OVC035
      TEMPO 2202/2204 BKN015
     FM220400 15004KT P6SM OVC012
     FM220700 17004KT 4SM BR OVC006
     FM220900 VRB03KT 1/2SM FG OVC001
     FM221500 20008KT 2SM BR BKN008
     FM221600 20011KT P6SM SCT015
     FM221800 21013KT P6SM SKC=



000
FTUS44 KCRP 212300
TAFLRD
TAF
KLRD 212330Z 2200/2224 14005KT P6SM SCT035
     FM220700 15004KT 5SM BR OVC008
     FM221000 VRB03KT 1SM BR OVC002
     FM221500 20007KT P6SM SCT008
     FM221600 21009KT P6SM SKC=



000
FTUS44 KCRP 212300
TAFALI
TAF
KALI 212330Z 2200/2224 09004KT P6SM OVC012
     FM220300 VRB03KT 5SM BR OVC009
     FM220700 19004KT 1SM BR OVC004
     FM221000 VRB03KT 1/2SM FG OVC002
      TEMPO 2210/2214 1/4SM FG VV001
     FM221500 20006KT 2SM BR SCT008
     FM221600 21009KT P6SM SCT015
     FM221800 23011KT P6SM SKC=



000
FTUS44 KCRP 212300
TAFVCT
TAF
KVCT 212330Z 2200/2224 14005KT P6SM SCT018 BKN025
     FM220200 15006KT P6SM OVC015
     FM220600 19004KT 3SM BR OVC006
     FM220900 VRB03KT 1SM BR OVC003
      TEMPO 2210/2214 1/2SM FG OVC002
     FM221530 23004KT 4SM BR BKN008 OVC015
     FM221700 22008KT P6SM SCT020
     FM221900 19011KT P6SM SKC=



000
FTUS44 KCRP 212300
TAFCRP
TAF
KCRP 212330Z 2200/2224 13005KT P6SM SCT015 OVC035
      TEMPO 2200/2202 BKN015
     FM220200 15004KT P6SM OVC012
     FM220500 17004KT 4SM BR OVC006
     FM220800 VRB03KT 1/2SM FG OVC001
     FM221500 20008KT 2SM BR BKN008
     FM221600 20011KT P6SM SCT015
     FM221800 21013KT P6SM SKC=



000
FTUS44 KCRP 212200 AAA
TAFVCT
TAF AMD
KVCT 212205Z 2122/2218 14005KT P6SM BKN020 OVC035
     FM220200 15006KT P6SM OVC015
     FM220700 19004KT 3SM BR OVC006
     FM221000 VRB03KT 1SM BR OVC003
     FM221530 24005KT 4SM BR BKN008
     FM221700 22008KT P6SM SCT020=



000
FTUS44 KCRP 212200 AAB
TAFCRP
TAF AMD
KCRP 212203Z 2122/2218 10006KT P6SM SCT015 OVC025
      TEMPO 2122/2201 BKN015
     FM220100 13005KT P6SM OVC012
     FM220500 15005KT 4SM BR OVC006
     FM220800 VRB03KT 1/2SM FG OVC001
     FM221500 20008KT 2SM BR SCT008
     FM221600 20011KT P6SM SCT015=



000
FTUS44 KCRP 212100 AAA
TAFALI
TAF AMD
KALI 212155Z 2122/2218 06004KT P6SM OVC008
     FM212300 10006KT P6SM BKN012 OVC025
     FM220200 VRB04KT 5SM BR OVC015
     FM220800 19004KT 2SM BR OVC004
     FM221000 VRB03KT 3/4SM BR OVC002
      TEMPO 2210/2214 1/2SM FG OVC001
     FM221530 20006KT 2SM BR SCT008
     FM221630 21009KT P6SM SCT015=



000
FTUS44 KCRP 212100 AAA
TAFALI
TAF AMD
KALI 212155Z 2122/2218 06004KT P6SM OVC008
     FM212300 10006KT P6SM BKN012 OVC025
     FM220200 VRB04KT 5SM BR OVC015
     FM220800 19004KT 2SM BR OVC004
     FM221000 VRB03KT 3/4SM BR OVC002
      TEMPO 2210/2214 1/2SM FG OVC001
     FM221530 20006KT 2SM BR SCT008
     FM221630 21009KT P6SM SCT015=



000
FTUS44 KCRP 212000 AAA
TAFCRP
TAF AMD
KCRP 212009Z 2120/2218 10007KT P6SM SCT015 OVC025
      TEMPO 2120/2122 BKN015
     FM212200 11007KT P6SM SCT025 OVC035
     FM220100 13005KT P6SM OVC012
     FM220500 15005KT 4SM BR OVC006
     FM220800 VRB03KT 1/2SM FG OVC001
     FM221500 20008KT 2SM BR SCT008
     FM221600 20011KT P6SM SCT015=



000
FTUS44 KCRP 211700
TAFLRD
TAF
KLRD 211734Z 2118/2218 VRB04KT P6SM OVC011
      TEMPO 2118/2121 OVC008
     FM212100 16006KT P6SM SCT035
     FM220800 15004KT 5SM BR OVC009
     FM221000 VRB03KT 1SM BR OVC002
     FM221600 20007KT P6SM FEW005=



000
FTUS44 KCRP 211700
TAFCRP
TAF
KCRP 211734Z 2118/2218 10007KT P6SM BKN015 OVC025
      TEMPO 2118/2119 6SM BR OVC009
     FM212200 09007KT P6SM BKN025 OVC035
     FM220200 13005KT P6SM OVC012
     FM220500 15005KT 4SM BR OVC006
     FM220800 VRB03KT 1/2SM FG OVC001
     FM221500 20008KT 2SM BR SCT008
     FM221600 20011KT P6SM SCT015=



000
FTUS44 KCRP 211700
TAFVCT
TAF
KVCT 211734Z 2118/2218 17006KT P6SM BKN015 OVC035
     FM212200 13005KT P6SM SCT025 BKN050
     FM220200 15006KT P6SM OVC015
     FM220700 19004KT 3SM BR OVC006
     FM221000 VRB03KT 1SM BR OVC003
     FM221530 24005KT 4SM BR BKN008
     FM221700 22008KT P6SM SCT020=



000
FTUS44 KCRP 211700
TAFALI
TAF
KALI 211734Z 2118/2218 06005KT P6SM OVC008
     FM212100 10007KT P6SM BKN015 OVC030
     FM220200 VRB04KT 5SM BR OVC015
     FM220800 19004KT 2SM BR OVC004
     FM221000 VRB03KT 3/4SM BR OVC002
      TEMPO 2210/2214 1/2SM FG OVC001
     FM221530 20006KT 2SM BR SCT008
     FM221630 21009KT P6SM SCT015=



000
FTUS44 KCRP 211600 AAA
TAFALI
TAF AMD
KALI 211619Z 2116/2212 03007KT 6SM BR FEW007 OVC012
     FM211800 VRB04KT P6SM OVC021
      TEMPO 2122/2202 SCT025 BKN035
     FM220200 VRB04KT 5SM BR OVC015
     FM220800 19004KT 2SM BR OVC004
     FM221000 VRB03KT 1SM BR OVC002=



000
FTUS44 KCRP 211500 AAA
TAFLRD
TAF AMD
KLRD 211543Z 2116/2212 VRB04KT P6SM OVC007
     FM211700 14005KT P6SM OVC011
     FM212100 18006KT P6SM SCT035
     FM212200 17006KT P6SM SCT025
     FM220800 18004KT 5SM BR OVC012=



000
FTUS44 KCRP 211500 AAA
TAFCRP
TAF AMD
KCRP 211537Z 2116/2212 02009KT 5SM BR OVC008
      TEMPO 2117/2119 6SM BR OVC011
     FM211900 06008KT P6SM BKN015 OVC035
     FM212200 09007KT P6SM BKN025 OVC035
     FM220200 13005KT P6SM OVC012
     FM220600 18005KT 4SM BR OVC006=



000
FTUS44 KCRP 211100
TAFCRP
TAF
KCRP 211130Z 2112/2212 03006KT 6SM BR OVC012
      TEMPO 2112/2115 OVC008
     FM211600 08008KT P6SM OVC035
     FM220200 13005KT P6SM OVC012
     FM220600 18005KT 4SM BR OVC006=



000
FTUS44 KCRP 211100
TAFALI
TAF
KALI 211130Z 2112/2212 01004KT 6SM BR SCT012
      TEMPO 2112/2116 OVC012
     FM211600 06005KT P6SM OVC035
     FM220200 03003KT 6SM BR OVC015
     FM220700 VRB03KT 3SM BR OVC004=



000
FTUS44 KCRP 211100
TAFVCT
TAF
KVCT 211130Z 2112/2212 01003KT 6SM BR OVC012
      TEMPO 2112/2114 4SM BR OVC008
     FM211600 15006KT P6SM OVC035
     FM220200 15006KT P6SM OVC015
     FM220700 19004KT 3SM BR OVC006=



000
FTUS44 KCRP 211100
TAFLRD
TAF
KLRD 211130Z 2112/2212 VRB04KT 6SM BR OVC005
     FM211500 14006KT P6SM OVC015
     FM211800 18006KT P6SM OVC035
     FM212200 17006KT P6SM SCT025
     FM220800 18004KT 5SM BR OVC012=



000
FTUS44 KCRP 210900 AAA
TAFLRD
TAF AMD
KLRD 210918Z 2109/2206 11004KT P6SM OVC007
     FM211200 VRB04KT 6SM BR OVC015
     FM211600 17006KT P6SM BKN025
     FM212200 17008KT P6SM SCT025
      AMD NOT SKED=



000
FTUS44 KCRP 210500
TAFCRP
TAF
KCRP 210530Z 2106/2206 06006KT P6SM BKN015 OVC080
     FM210900 04008KT 6SM -DZ BR OVC015
      TEMPO 2110/2113 OVC008
     FM211600 06008KT P6SM BKN020 OVC060=



000
FTUS44 KCRP 210500
TAFALI
TAF
KALI 210530Z 2106/2206 05005KT P6SM BKN015 OVC080
     FM210700 01004KT 6SM BR OVC015
      TEMPO 2110/2113 OVC008
     FM211600 06005KT P6SM BKN020 OVC050
     FM220400 03003KT 5SM BR OVC015=



000
FTUS44 KCRP 210500
TAFVCT
TAF
KVCT 210530Z 2106/2206 05007KT 5SM BR OVC015
     FM210900 01003KT 5SM BR OVC008
      TEMPO 2110/2113 3SM BR OVC005
     FM211600 VRB05KT P6SM BKN025=



000
FTUS44 KCRP 210500
TAFLRD
TAF
KLRD 210530Z 2106/2206 05007KT P6SM OVC015
     FM211000 VRB04KT 6SM BR OVC015
     FM211600 17006KT P6SM BKN025
     FM212200 17008KT P6SM SCT025=



000
FTUS44 KCRP 210400 AAA
TAFVCT
TAF AMD
KVCT 210434Z 2105/2124 01003KT 5SM BR OVC015
      TEMPO 2105/2109 3SM BR OVC008
     FM211600 VRB05KT P6SM BKN025=



000
FTUS44 KCRP 210400 AAA
TAFVCT
TAF AMD
KVCT 210434Z 2105/2124 01003KT 5SM BR OVC015
      TEMPO 2105/2109 3SM BR OVC008
     FM211600 VRB05KT P6SM BKN025=



000
FTUS44 KCRP 202300
TAFVCT
TAF
KVCT 202323Z 2100/2124 05007KT P6SM OVC015
     FM210700 01003KT 6SM BR OVC015
     FM211600 VRB05KT P6SM BKN025=



000
FTUS44 KCRP 202300
TAFALI
TAF
KALI 202323Z 2100/2124 05005KT P6SM BKN015 OVC080
     FM210700 01004KT 6SM BR OVC015
      TEMPO 2110/2113 OVC008
     FM211600 06005KT P6SM BKN020 OVC050=



000
FTUS44 KCRP 202300
TAFLRD
TAF
KLRD 202323Z 2100/2124 05007KT P6SM OVC015
     FM211000 VRB04KT 6SM BR OVC015
     FM211600 17006KT P6SM BKN025=



000
FTUS44 KCRP 202300
TAFCRP
TAF
KCRP 202323Z 2100/2124 06006KT P6SM BKN015 OVC080
     FM210900 04008KT 6SM -DZ BR OVC015
      TEMPO 2110/2113 OVC008
     FM211600 06008KT P6SM BKN020 OVC060=



000
FTUS44 KCRP 201700
TAFALI
TAF
KALI 201720Z 2018/2118 03008KT P6SM OVC012
     FM202300 05005KT P6SM BKN025 OVC080
     FM210700 01004KT 6SM BR OVC015
     FM211600 06006KT P6SM BKN025=



000
FTUS44 KCRP 201700
TAFCRP
TAF
KCRP 201720Z 2018/2118 01010KT P6SM OVC015
     FM202200 04006KT P6SM BKN025 OVC080
     FM210900 04008KT 6SM -DZ BR OVC015
     FM211600 06008KT P6SM BKN020=



000
FTUS44 KCRP 201700
TAFLRD
TAF
KLRD 201720Z 2018/2118 05007KT P6SM BKN015
      TEMPO 2018/2020 OVC009
     FM202200 05007KT P6SM SCT020 BKN070
     FM211000 09005KT 6SM BR OVC020
     FM211600 17006KT P6SM BKN025=



000
FTUS44 KCRP 201700
TAFVCT
TAF
KVCT 201720Z 2018/2118 01009KT P6SM OVC015
     FM202100 04007KT P6SM OVC025
     FM210700 01003KT 6SM BR OVC015
     FM211600 06006KT P6SM BKN025=



000
FTUS44 KCRP 201100
TAFVCT
TAF
KVCT 201129Z 2012/2112 36008KT P6SM OVC008
     FM201600 03008KT P6SM OVC015
     FM202100 04007KT P6SM OVC025
     FM210700 01003KT 6SM BR OVC015=



000
FTUS44 KCRP 201100
TAFALI
TAF
KALI 201129Z 2012/2112 02007KT P6SM OVC008
      TEMPO 2014/2018 BKN015
     FM201800 03008KT P6SM OVC018
     FM202300 07005KT P6SM BKN025
     FM210700 01004KT 6SM BR OVC015=



000
FTUS44 KCRP 201100
TAFLRD
TAF
KLRD 201129Z 2012/2112 03007KT P6SM OVC007
      TEMPO 2012/2015 OVC005
     FM201800 05007KT P6SM BKN015
     FM202000 05007KT P6SM SCT020 BKN050
     FM210900 09005KT 6SM BR OVC007=



000
FTUS44 KCRP 201100
TAFCRP
TAF
KCRP 201129Z 2012/2112 01012KT P6SM OVC009
      TEMPO 2012/2016 OVC012
     FM201600 04010KT P6SM OVC018
     FM202200 05006KT P6SM SCT020 OVC050
     FM210900 04008KT 6SM -DZ BR OVC012=



000
FTUS44 KCRP 200500
TAFALI
TAF
KALI 200529Z 2006/2106 02007KT P6SM OVC018
      TEMPO 2009/2013 BKN015
     FM201600 02010KT P6SM BKN020 BKN080
     FM210200 02004KT P6SM SCT030 BKN080=



000
FTUS44 KCRP 200500
TAFCRP
TAF
KCRP 200529Z 2006/2106 01012KT P6SM OVC015
     FM201600 02012KT P6SM BKN018 BKN080
     FM210300 05006KT P6SM SCT020 BKN080=



000
FTUS44 KCRP 200500
TAFVCT
TAF
KVCT 200529Z 2006/2106 01011KT P6SM BKN015
     FM200900 36007KT 5SM BR FEW005 OVC012
     FM201600 03012KT P6SM BKN018
     FM202200 02008KT P6SM SCT020 BKN080=



000
FTUS44 KCRP 200500
TAFLRD
TAF
KLRD 200529Z 2006/2106 05005KT P6SM FEW025
     FM200900 04005KT 5SM BR BKN015
     FM201600 06010KT P6SM FEW020 BKN080
     FM210300 07005KT P6SM SCT020 BKN080
      AMD NOT SKED=



000
FTUS44 KCRP 192300
TAFCRP
TAF
KCRP 192330Z 2000/2024 35011KT P6SM BKN015
     FM200400 01013KT 6SM BR OVC015
     FM201600 02012KT P6SM SCT018 BKN080=



000
FTUS44 KCRP 192300
TAFALI
TAF
KALI 192330Z 2000/2024 35011KT P6SM SCT020
      TEMPO 2000/2004 BKN020
     FM200600 02007KT 5SM BR SCT020
      TEMPO 2009/2013 BKN015
     FM201500 02010KT P6SM SCT020 BKN080=



000
FTUS44 KCRP 192300
TAFVCT
TAF
KVCT 192330Z 2000/2024 01011KT P6SM BKN015
     FM200800 36007KT 5SM BR FEW005 OVC012
     FM201600 03012KT P6SM BKN018
     FM202200 02008KT P6SM SCT030=



000
FTUS44 KCRP 192300
TAFLRD
TAF
KLRD 192330Z 2000/2024 01009KT P6SM FEW025
     FM201000 04005KT 5SM BR SCT015 BKN020
     FM201600 06010KT P6SM FEW020 BKN080=



    US Dept of Commerce
    National Oceanic and Atmospheric Administration
    National Weather Service
    1325 East West Highway
    Silver Spring, MD 20910
    Page Author: NWS Internet Services Team
Disclaimer
Information Quality
Credits
Glossary
Privacy Policy
Freedom of Information Act (FOIA)
About Us
Career Opportunities